sensor_id;sensor_type;location;lat;lon;timestamp;temperature;humidity
14739;DHT22;7461;52.440;13.540;2022-11-23T00:01:56;1.50;99.90
14739;DHT22;7461;52.440;13.540;2022-11-23T00:04:23;1.50;99.90
14739;DHT22;7461;52.440;13.540;2022-11-23T00:06:50;1.40;99.90
14739;DHT22;7461;52.440;13.540;2022-11-23T00:09:17;1.50;99.90
14739;DHT22;7461;52.440;13.540;2022-11-23T00:11:46;1.50;99.90
14739;DHT22;7461;52.440;13.540;2022-11-23T00:14:13;1.40;99.90
14739;DHT22;7461;52.440;13.540;2022-11-23T00:16:40;1.40;99.90
14739;DHT22;7461;52.440;13.540;2022-11-23T00:19:08;1.50;99.90
14739;DHT22;7461;52.440;13.540;2022-11-23T00:21:35;1.40;99.90
14739;DHT22;7461;52.440;13.540;2022-11-23T00:24:02;1.40;99.90
14739;DHT22;7461;52.440;13.540;2022-11-23T00:26:49;1.40;99.90
14739;DHT22;7461;52.440;13.540;2022-11-23T00:29:16;1.40;99.90
14739;DHT22;7461;52.440;13.540;2022-11-23T00:31:43;1.40;99.90
14739;DHT22;7461;52.440;13.540;2022-11-23T00:34:10;1.40;99.90
14739;DHT22;7461;52.440;13.540;2022-11-23T00:36:37;1.40;99.90
14739;DHT22;7461;52.440;13.540;2022-11-23T00:39:04;1.40;99.90
14739;DHT22;7461;52.440;13.540;2022-11-23T00:41:31;1.40;99.90
14739;DHT22;7461;52.440;13.540;2022-11-23T00:43:59;1.40;99.90
14739;DHT22;7461;52.440;13.540;2022-11-23T00:46:27;1.40;99.90
14739;DHT22;7461;52.440;13.540;2022-11-23T00:48:55;1.40;99.90
14739;DHT22;7461;52.440;13.540;2022-11-23T00:51:24;1.40;99.90
14739;DHT22;7461;52.440;13.540;2022-11-23T00:53:52;1.40;99.90
14739;DHT22;7461;52.440;13.540;2022-11-23T00:56:20;1.50;99.90
14739;DHT22;7461;52.440;13.540;2022-11-23T00:58:48;1.50;99.90
14739;DHT22;7461;52.440;13.540;2022-11-23T01:01:18;1.50;99.90
14739;DHT22;7461;52.440;13.540;2022-11-23T01:03:48;1.50;99.90
14739;DHT22;7461;52.440;13.540;2022-11-23T01:06:17;1.50;99.90
14739;DHT22;7461;52.440;13.540;2022-11-23T01:08:48;1.50;99.90
14739;DHT22;7461;52.440;13.540;2022-11-23T01:11:16;1.50;99.90
14739;DHT22;7461;52.440;13.540;2022-11-23T01:13:43;1.50;99.90
14739;DHT22;7461;52.440;13.540;2022-11-23T01:16:13;1.50;99.90
14739;DHT22;7461;52.440;13.540;2022-11-23T01:18:42;1.40;99.90
14739;DHT22;7461;52.440;13.540;2022-11-23T01:21:09;1.40;99.90
14739;DHT22;7461;52.440;13.540;2022-11-23T01:23:36;1.40;99.90
14739;DHT22;7461;52.440;13.540;2022-11-23T01:26:04;1.40;99.90
14739;DHT22;7461;52.440;13.540;2022-11-23T01:28:32;1.40;99.90
14739;DHT22;7461;52.440;13.540;2022-11-23T01:31:03;1.40;99.90
14739;DHT22;7461;52.440;13.540;2022-11-23T01:33:30;1.30;99.90
14739;DHT22;7461;52.440;13.540;2022-11-23T01:35:59;1.30;99.90
14739;DHT22;7461;52.440;13.540;2022-11-23T01:38:26;1.40;99.90
14739;DHT22;7461;52.440;13.540;2022-11-23T01:40:53;1.40;99.90
14739;DHT22;7461;52.440;13.540;2022-11-23T01:43:19;1.40;99.90
14739;DHT22;7461;52.440;13.540;2022-11-23T01:45:56;1.40;99.90
14739;DHT22;7461;52.440;13.540;2022-11-23T01:48:26;1.50;99.90
14739;DHT22;7461;52.440;13.540;2022-11-23T01:50:55;1.60;99.90
14739;DHT22;7461;52.440;13.540;2022-11-23T01:53:25;1.50;99.90
14739;DHT22;7461;52.440;13.540;2022-11-23T01:55:54;1.60;99.90
14739;DHT22;7461;52.440;13.540;2022-11-23T01:58:22;1.60;99.90
14739;DHT22;7461;52.440;13.540;2022-11-23T02:00:51;1.60;99.90
14739;DHT22;7461;52.440;13.540;2022-11-23T02:03:18;1.70;99.90
14739;DHT22;7461;52.440;13.540;2022-11-23T02:05:48;1.70;99.90
14739;DHT22;7461;52.440;13.540;2022-11-23T02:08:18;1.70;99.90
14739;DHT22;7461;52.440;13.540;2022-11-23T02:10:47;1.70;99.90
14739;DHT22;7461;52.440;13.540;2022-11-23T02:13:14;1.70;99.90
14739;DHT22;7461;52.440;13.540;2022-11-23T02:15:41;1.70;99.90
14739;DHT22;7461;52.440;13.540;2022-11-23T02:18:13;1.70;99.90
14739;DHT22;7461;52.440;13.540;2022-11-23T02:20:42;1.80;99.90
14739;DHT22;7461;52.440;13.540;2022-11-23T02:23:17;1.80;99.90
14739;DHT22;7461;52.440;13.540;2022-11-23T02:26:01;1.80;99.90
14739;DHT22;7461;52.440;13.540;2022-11-23T02:28:32;1.80;99.90
14739;DHT22;7461;52.440;13.540;2022-11-23T02:30:59;1.90;99.90
14739;DHT22;7461;52.440;13.540;2022-11-23T02:33:27;1.80;99.90
14739;DHT22;7461;52.440;13.540;2022-11-23T02:35:56;1.90;99.90
14739;DHT22;7461;52.440;13.540;2022-11-23T02:38:26;1.90;99.90
14739;DHT22;7461;52.440;13.540;2022-11-23T02:40:54;1.90;99.90
14739;DHT22;7461;52.440;13.540;2022-11-23T02:43:23;1.90;99.90
14739;DHT22;7461;52.440;13.540;2022-11-23T02:45:52;2.00;99.90
14739;DHT22;7461;52.440;13.540;2022-11-23T02:48:20;2.00;99.90
14739;DHT22;7461;52.440;13.540;2022-11-23T02:50:47;2.00;99.90
14739;DHT22;7461;52.440;13.540;2022-11-23T02:53:14;1.90;99.90
14739;DHT22;7461;52.440;13.540;2022-11-23T02:55:41;1.90;99.90
14739;DHT22;7461;52.440;13.540;2022-11-23T03:04:55;1.90;99.90
14739;DHT22;7461;52.440;13.540;2022-11-23T03:07:22;1.90;99.90
14739;DHT22;7461;52.440;13.540;2022-11-23T03:09:49;1.90;99.90
14739;DHT22;7461;52.440;13.540;2022-11-23T03:12:17;1.90;99.90
14739;DHT22;7461;52.440;13.540;2022-11-23T03:14:43;1.90;99.90
14739;DHT22;7461;52.440;13.540;2022-11-23T03:17:10;1.90;99.90
14739;DHT22;7461;52.440;13.540;2022-11-23T03:19:38;1.80;99.90
14739;DHT22;7461;52.440;13.540;2022-11-23T03:22:06;1.80;99.90
14739;DHT22;7461;52.440;13.540;2022-11-23T03:24:34;1.80;99.90
14739;DHT22;7461;52.440;13.540;2022-11-23T03:27:01;1.80;99.90
14739;DHT22;7461;52.440;13.540;2022-11-23T03:29:28;1.80;99.90
14739;DHT22;7461;52.440;13.540;2022-11-23T03:31:55;1.80;99.90
14739;DHT22;7461;52.440;13.540;2022-11-23T03:34:22;1.70;99.90
14739;DHT22;7461;52.440;13.540;2022-11-23T03:36:49;1.70;99.90
14739;DHT22;7461;52.440;13.540;2022-11-23T03:39:18;1.70;99.90
14739;DHT22;7461;52.440;13.540;2022-11-23T03:41:45;1.60;99.90
14739;DHT22;7461;52.440;13.540;2022-11-23T03:44:11;1.60;99.90
14739;DHT22;7461;52.440;13.540;2022-11-23T03:46:38;1.60;99.90
14739;DHT22;7461;52.440;13.540;2022-11-23T03:49:06;1.50;99.90
14739;DHT22;7461;52.440;13.540;2022-11-23T03:51:33;1.50;99.90
14739;DHT22;7461;52.440;13.540;2022-11-23T03:54:00;1.50;99.90
14739;DHT22;7461;52.440;13.540;2022-11-23T03:56:28;1.50;99.90
14739;DHT22;7461;52.440;13.540;2022-11-23T03:58:55;1.50;99.90
14739;DHT22;7461;52.440;13.540;2022-11-23T04:01:22;1.60;99.90
14739;DHT22;7461;52.440;13.540;2022-11-23T04:03:49;1.50;99.90
14739;DHT22;7461;52.440;13.540;2022-11-23T04:06:16;1.50;99.90
14739;DHT22;7461;52.440;13.540;2022-11-23T04:08:43;1.50;99.90
14739;DHT22;7461;52.440;13.540;2022-11-23T04:11:11;1.50;99.90
14739;DHT22;7461;52.440;13.540;2022-11-23T04:13:39;1.50;99.90
14739;DHT22;7461;52.440;13.540;2022-11-23T04:16:06;1.50;99.90
14739;DHT22;7461;52.440;13.540;2022-11-23T04:18:33;1.50;99.90
14739;DHT22;7461;52.440;13.540;2022-11-23T04:21:00;1.40;99.90
14739;DHT22;7461;52.440;13.540;2022-11-23T04:23:27;1.40;99.90
14739;DHT22;7461;52.440;13.540;2022-11-23T04:25:54;1.40;99.90
14739;DHT22;7461;52.440;13.540;2022-11-23T04:28:21;1.30;99.90
14739;DHT22;7461;52.440;13.540;2022-11-23T04:30:50;1.30;99.90
14739;DHT22;7461;52.440;13.540;2022-11-23T04:33:16;1.30;99.90
14739;DHT22;7461;52.440;13.540;2022-11-23T04:35:43;1.30;99.90
14739;DHT22;7461;52.440;13.540;2022-11-23T04:38:10;1.30;99.90
14739;DHT22;7461;52.440;13.540;2022-11-23T04:40:38;1.40;99.90
14739;DHT22;7461;52.440;13.540;2022-11-23T04:43:05;1.40;99.90
14739;DHT22;7461;52.440;13.540;2022-11-23T04:45:37;1.30;99.90
14739;DHT22;7461;52.440;13.540;2022-11-23T04:48:06;1.30;99.90
14739;DHT22;7461;52.440;13.540;2022-11-23T04:50:33;1.30;99.90
14739;DHT22;7461;52.440;13.540;2022-11-23T04:53:00;1.30;99.90
14739;DHT22;7461;52.440;13.540;2022-11-23T04:55:27;1.30;99.90
14739;DHT22;7461;52.440;13.540;2022-11-23T04:57:54;1.30;99.90
14739;DHT22;7461;52.440;13.540;2022-11-23T05:00:21;1.30;99.90
14739;DHT22;7461;52.440;13.540;2022-11-23T05:02:48;1.30;99.90
14739;DHT22;7461;52.440;13.540;2022-11-23T05:05:17;1.30;99.90
14739;DHT22;7461;52.440;13.540;2022-11-23T05:07:44;1.30;99.90
14739;DHT22;7461;52.440;13.540;2022-11-23T05:10:11;1.30;99.90
14739;DHT22;7461;52.440;13.540;2022-11-23T05:12:38;1.30;99.90
14739;DHT22;7461;52.440;13.540;2022-11-23T05:15:05;1.30;99.90
14739;DHT22;7461;52.440;13.540;2022-11-23T05:17:32;1.40;99.90
14739;DHT22;7461;52.440;13.540;2022-11-23T05:20:01;1.50;99.90
14739;DHT22;7461;52.440;13.540;2022-11-23T05:22:32;1.50;99.90
14739;DHT22;7461;52.440;13.540;2022-11-23T05:25:00;1.50;99.90
14739;DHT22;7461;52.440;13.540;2022-11-23T05:27:27;1.60;99.90
14739;DHT22;7461;52.440;13.540;2022-11-23T05:29:56;1.60;99.90
14739;DHT22;7461;52.440;13.540;2022-11-23T05:32:24;1.60;99.90
14739;DHT22;7461;52.440;13.540;2022-11-23T05:34:51;1.60;99.90
14739;DHT22;7461;52.440;13.540;2022-11-23T05:37:18;1.60;99.90
14739;DHT22;7461;52.440;13.540;2022-11-23T05:39:46;1.60;99.90
14739;DHT22;7461;52.440;13.540;2022-11-23T05:42:13;1.60;99.90
14739;DHT22;7461;52.440;13.540;2022-11-23T05:44:40;1.60;99.90
14739;DHT22;7461;52.440;13.540;2022-11-23T05:47:07;1.60;99.90
14739;DHT22;7461;52.440;13.540;2022-11-23T05:49:34;1.60;99.90
14739;DHT22;7461;52.440;13.540;2022-11-23T05:52:01;1.60;99.90
14739;DHT22;7461;52.440;13.540;2022-11-23T05:54:27;1.60;99.90
14739;DHT22;7461;52.440;13.540;2022-11-23T05:56:56;1.60;99.90
14739;DHT22;7461;52.440;13.540;2022-11-23T05:59:23;1.60;99.90
14739;DHT22;7461;52.440;13.540;2022-11-23T06:01:50;1.60;99.90
14739;DHT22;7461;52.440;13.540;2022-11-23T06:04:17;1.70;99.90
14739;DHT22;7461;52.440;13.540;2022-11-23T06:06:43;1.60;99.90
14739;DHT22;7461;52.440;13.540;2022-11-23T06:09:10;1.60;99.90
14739;DHT22;7461;52.440;13.540;2022-11-23T06:11:37;1.70;99.90
14739;DHT22;7461;52.440;13.540;2022-11-23T06:14:06;1.70;99.90
14739;DHT22;7461;52.440;13.540;2022-11-23T06:16:33;1.60;99.90
14739;DHT22;7461;52.440;13.540;2022-11-23T06:18:59;1.60;99.90
14739;DHT22;7461;52.440;13.540;2022-11-23T06:21:26;1.60;99.90
14739;DHT22;7461;52.440;13.540;2022-11-23T06:23:54;1.60;99.90
14739;DHT22;7461;52.440;13.540;2022-11-23T06:26:21;1.50;99.90
14739;DHT22;7461;52.440;13.540;2022-11-23T06:28:48;1.50;99.90
14739;DHT22;7461;52.440;13.540;2022-11-23T06:31:16;1.50;99.90
14739;DHT22;7461;52.440;13.540;2022-11-23T06:33:43;1.50;99.90
14739;DHT22;7461;52.440;13.540;2022-11-23T06:36:10;1.50;99.90
14739;DHT22;7461;52.440;13.540;2022-11-23T06:38:37;1.50;99.90
14739;DHT22;7461;52.440;13.540;2022-11-23T06:41:05;1.50;99.90
14739;DHT22;7461;52.440;13.540;2022-11-23T06:43:32;1.40;99.90
14739;DHT22;7461;52.440;13.540;2022-11-23T06:46:02;1.40;99.90
14739;DHT22;7461;52.440;13.540;2022-11-23T06:48:31;1.30;99.90
14739;DHT22;7461;52.440;13.540;2022-11-23T06:50:58;1.30;99.90
14739;DHT22;7461;52.440;13.540;2022-11-23T06:53:26;1.30;99.90
14739;DHT22;7461;52.440;13.540;2022-11-23T06:55:57;1.30;99.90
14739;DHT22;7461;52.440;13.540;2022-11-23T06:58:24;1.30;99.90
14739;DHT22;7461;52.440;13.540;2022-11-23T07:00:51;1.30;99.90
14739;DHT22;7461;52.440;13.540;2022-11-23T07:03:19;1.20;99.90
14739;DHT22;7461;52.440;13.540;2022-11-23T07:05:48;1.20;99.90
14739;DHT22;7461;52.440;13.540;2022-11-23T07:08:15;1.10;99.90
14739;DHT22;7461;52.440;13.540;2022-11-23T07:10:42;1.00;99.90
14739;DHT22;7461;52.440;13.540;2022-11-23T07:13:09;1.10;99.90
14739;DHT22;7461;52.440;13.540;2022-11-23T07:15:39;1.00;99.90
14739;DHT22;7461;52.440;13.540;2022-11-23T07:18:08;1.00;99.90
14739;DHT22;7461;52.440;13.540;2022-11-23T07:20:36;1.00;99.90
14739;DHT22;7461;52.440;13.540;2022-11-23T07:23:06;1.00;99.90
14739;DHT22;7461;52.440;13.540;2022-11-23T07:25:35;1.10;99.90
14739;DHT22;7461;52.440;13.540;2022-11-23T07:28:04;1.00;99.90
14739;DHT22;7461;52.440;13.540;2022-11-23T07:30:32;1.10;99.90
14739;DHT22;7461;52.440;13.540;2022-11-23T07:33:00;1.10;99.90
14739;DHT22;7461;52.440;13.540;2022-11-23T07:35:27;1.00;99.90
14739;DHT22;7461;52.440;13.540;2022-11-23T07:37:54;1.00;99.90
14739;DHT22;7461;52.440;13.540;2022-11-23T07:40:23;1.10;99.90
14739;DHT22;7461;52.440;13.540;2022-11-23T07:42:50;1.10;99.90
14739;DHT22;7461;52.440;13.540;2022-11-23T07:45:17;1.10;99.90
14739;DHT22;7461;52.440;13.540;2022-11-23T07:47:45;1.20;99.90
14739;DHT22;7461;52.440;13.540;2022-11-23T07:50:12;1.20;99.90
14739;DHT22;7461;52.440;13.540;2022-11-23T07:52:39;1.20;99.90
14739;DHT22;7461;52.440;13.540;2022-11-23T07:55:07;1.20;99.90
14739;DHT22;7461;52.440;13.540;2022-11-23T07:57:35;1.30;99.90
14739;DHT22;7461;52.440;13.540;2022-11-23T08:00:03;1.20;99.90
14739;DHT22;7461;52.440;13.540;2022-11-23T08:02:30;1.30;99.90
14739;DHT22;7461;52.440;13.540;2022-11-23T08:04:57;1.40;99.90
14739;DHT22;7461;52.440;13.540;2022-11-23T08:07:24;1.40;99.90
14739;DHT22;7461;52.440;13.540;2022-11-23T08:09:51;1.50;99.90
14739;DHT22;7461;52.440;13.540;2022-11-23T08:12:18;1.50;99.90
14739;DHT22;7461;52.440;13.540;2022-11-23T08:14:47;1.50;99.90
14739;DHT22;7461;52.440;13.540;2022-11-23T08:17:14;1.60;99.90
14739;DHT22;7461;52.440;13.540;2022-11-23T08:19:41;1.60;99.90
14739;DHT22;7461;52.440;13.540;2022-11-23T08:22:08;1.60;99.90
14739;DHT22;7461;52.440;13.540;2022-11-23T08:24:35;1.70;99.90
14739;DHT22;7461;52.440;13.540;2022-11-23T08:27:02;1.80;99.90
14739;DHT22;7461;52.440;13.540;2022-11-23T08:29:29;1.80;99.90
14739;DHT22;7461;52.440;13.540;2022-11-23T08:32:00;1.90;99.90
14739;DHT22;7461;52.440;13.540;2022-11-23T08:34:27;2.00;99.90
14739;DHT22;7461;52.440;13.540;2022-11-23T08:36:55;2.10;99.90
14739;DHT22;7461;52.440;13.540;2022-11-23T08:39:22;2.10;99.90
14739;DHT22;7461;52.440;13.540;2022-11-23T08:41:49;2.20;99.90
14739;DHT22;7461;52.440;13.540;2022-11-23T08:44:16;2.20;99.90
14739;DHT22;7461;52.440;13.540;2022-11-23T08:46:43;2.20;99.90
14739;DHT22;7461;52.440;13.540;2022-11-23T08:49:11;2.30;99.90
14739;DHT22;7461;52.440;13.540;2022-11-23T08:51:38;2.40;99.90
14739;DHT22;7461;52.440;13.540;2022-11-23T08:54:05;2.40;99.90
14739;DHT22;7461;52.440;13.540;2022-11-23T08:56:32;2.50;99.90
14739;DHT22;7461;52.440;13.540;2022-11-23T08:58:59;2.60;99.90
14739;DHT22;7461;52.440;13.540;2022-11-23T09:01:25;2.60;99.90
14739;DHT22;7461;52.440;13.540;2022-11-23T09:03:52;2.60;99.90
14739;DHT22;7461;52.440;13.540;2022-11-23T09:06:21;2.70;99.90
14739;DHT22;7461;52.440;13.540;2022-11-23T09:08:53;2.70;99.90
14739;DHT22;7461;52.440;13.540;2022-11-23T09:11:20;2.70;99.90
14739;DHT22;7461;52.440;13.540;2022-11-23T09:13:47;2.80;99.90
14739;DHT22;7461;52.440;13.540;2022-11-23T09:16:14;2.80;99.90
14739;DHT22;7461;52.440;13.540;2022-11-23T09:18:41;2.90;99.90
14739;DHT22;7461;52.440;13.540;2022-11-23T09:21:09;2.90;99.90
14739;DHT22;7461;52.440;13.540;2022-11-23T09:23:37;3.00;99.90
14739;DHT22;7461;52.440;13.540;2022-11-23T09:26:04;3.00;99.90
14739;DHT22;7461;52.440;13.540;2022-11-23T09:28:32;3.10;99.90
14739;DHT22;7461;52.440;13.540;2022-11-23T09:31:03;3.10;99.90
14739;DHT22;7461;52.440;13.540;2022-11-23T09:33:30;3.20;99.90
14739;DHT22;7461;52.440;13.540;2022-11-23T09:35:57;3.20;99.90
14739;DHT22;7461;52.440;13.540;2022-11-23T09:38:24;3.30;99.90
14739;DHT22;7461;52.440;13.540;2022-11-23T09:40:57;3.30;99.90
14739;DHT22;7461;52.440;13.540;2022-11-23T09:43:43;3.30;99.90
14739;DHT22;7461;52.440;13.540;2022-11-23T09:46:21;3.40;99.90
14739;DHT22;7461;52.440;13.540;2022-11-23T09:49:00;3.40;99.90
14739;DHT22;7461;52.440;13.540;2022-11-23T09:51:29;3.50;99.90
14739;DHT22;7461;52.440;13.540;2022-11-23T09:53:58;3.50;99.90
14739;DHT22;7461;52.440;13.540;2022-11-23T09:56:29;3.60;99.90
14739;DHT22;7461;52.440;13.540;2022-11-23T09:58:58;3.60;99.90
14739;DHT22;7461;52.440;13.540;2022-11-23T10:01:25;3.70;99.90
14739;DHT22;7461;52.440;13.540;2022-11-23T10:03:52;3.80;99.90
14739;DHT22;7461;52.440;13.540;2022-11-23T10:06:22;3.80;99.90
14739;DHT22;7461;52.440;13.540;2022-11-23T10:09:11;3.90;99.90
14739;DHT22;7461;52.440;13.540;2022-11-23T10:14:49;4.00;99.90
14739;DHT22;7461;52.440;13.540;2022-11-23T10:17:22;4.10;99.90
14739;DHT22;7461;52.440;13.540;2022-11-23T10:20:03;4.20;99.90
14739;DHT22;7461;52.440;13.540;2022-11-23T10:22:41;4.30;99.90
14739;DHT22;7461;52.440;13.540;2022-11-23T10:25:15;4.40;99.90
14739;DHT22;7461;52.440;13.540;2022-11-23T10:27:46;4.50;99.90
14739;DHT22;7461;52.440;13.540;2022-11-23T10:30:24;4.70;99.90
14739;DHT22;7461;52.440;13.540;2022-11-23T10:32:55;4.80;99.90
14739;DHT22;7461;52.440;13.540;2022-11-23T10:35:28;4.90;99.90
14739;DHT22;7461;52.440;13.540;2022-11-23T10:38:07;5.00;99.90
14739;DHT22;7461;52.440;13.540;2022-11-23T10:40:38;5.20;99.90
14739;DHT22;7461;52.440;13.540;2022-11-23T10:43:13;5.30;99.90
14739;DHT22;7461;52.440;13.540;2022-11-23T10:45:41;5.30;99.90
14739;DHT22;7461;52.440;13.540;2022-11-23T10:48:08;5.30;99.90
14739;DHT22;7461;52.440;13.540;2022-11-23T10:50:37;5.30;99.90
14739;DHT22;7461;52.440;13.540;2022-11-23T10:53:20;5.30;99.90
14739;DHT22;7461;52.440;13.540;2022-11-23T10:55:49;5.30;99.90
14739;DHT22;7461;52.440;13.540;2022-11-23T10:58:28;5.30;99.90
14739;DHT22;7461;52.440;13.540;2022-11-23T11:01:00;5.30;99.90
14739;DHT22;7461;52.440;13.540;2022-11-23T11:03:30;5.30;99.90
14739;DHT22;7461;52.440;13.540;2022-11-23T11:05:58;5.40;99.90
14739;DHT22;7461;52.440;13.540;2022-11-23T11:08:28;5.40;99.90
14739;DHT22;7461;52.440;13.540;2022-11-23T11:11:01;5.50;99.90
14739;DHT22;7461;52.440;13.540;2022-11-23T11:13:31;5.60;99.90
14739;DHT22;7461;52.440;13.540;2022-11-23T11:16:00;5.70;99.90
14739;DHT22;7461;52.440;13.540;2022-11-23T11:18:29;5.80;99.90
14739;DHT22;7461;52.440;13.540;2022-11-23T11:21:00;5.90;99.90
14739;DHT22;7461;52.440;13.540;2022-11-23T11:23:29;6.00;99.90
14739;DHT22;7461;52.440;13.540;2022-11-23T11:26:05;6.00;99.90
14739;DHT22;7461;52.440;13.540;2022-11-23T11:28:37;5.90;99.90
14739;DHT22;7461;52.440;13.540;2022-11-23T11:31:24;6.00;99.90
14739;DHT22;7461;52.440;13.540;2022-11-23T11:34:00;6.00;99.90
14739;DHT22;7461;52.440;13.540;2022-11-23T11:36:35;6.10;99.90
14739;DHT22;7461;52.440;13.540;2022-11-23T11:39:09;6.20;99.90
14739;DHT22;7461;52.440;13.540;2022-11-23T11:41:40;6.10;99.90
14739;DHT22;7461;52.440;13.540;2022-11-23T11:44:16;6.20;99.90
14739;DHT22;7461;52.440;13.540;2022-11-23T11:46:48;6.30;99.90
14739;DHT22;7461;52.440;13.540;2022-11-23T11:49:20;6.30;99.90
14739;DHT22;7461;52.440;13.540;2022-11-23T11:51:53;6.40;99.90
14739;DHT22;7461;52.440;13.540;2022-11-23T11:54:25;6.30;99.90
14739;DHT22;7461;52.440;13.540;2022-11-23T11:56:59;6.30;99.90
14739;DHT22;7461;52.440;13.540;2022-11-23T11:59:31;6.30;99.90
14739;DHT22;7461;52.440;13.540;2022-11-23T12:02:16;6.30;99.90
14739;DHT22;7461;52.440;13.540;2022-11-23T12:04:51;6.20;99.90
14739;DHT22;7461;52.440;13.540;2022-11-23T12:07:26;6.30;99.90
14739;DHT22;7461;52.440;13.540;2022-11-23T12:09:59;6.50;99.90
14739;DHT22;7461;52.440;13.540;2022-11-23T12:12:34;6.60;99.90
14739;DHT22;7461;52.440;13.540;2022-11-23T12:15:05;6.70;99.90
14739;DHT22;7461;52.440;13.540;2022-11-23T12:18:01;6.90;99.90
14739;DHT22;7461;52.440;13.540;2022-11-23T12:20:40;6.80;99.90
14739;DHT22;7461;52.440;13.540;2022-11-23T12:23:19;6.90;99.90
14739;DHT22;7461;52.440;13.540;2022-11-23T12:25:57;6.90;99.90
14739;DHT22;7461;52.440;13.540;2022-11-23T12:28:43;6.80;99.90
14739;DHT22;7461;52.440;13.540;2022-11-23T12:31:21;6.80;99.90
14739;DHT22;7461;52.440;13.540;2022-11-23T12:34:03;6.80;99.90
14739;DHT22;7461;52.440;13.540;2022-11-23T12:36:48;6.80;99.90
14739;DHT22;7461;52.440;13.540;2022-11-23T12:39:27;6.80;99.90
14739;DHT22;7461;52.440;13.540;2022-11-23T12:42:01;6.70;99.90
14739;DHT22;7461;52.440;13.540;2022-11-23T12:44:48;6.80;99.90
14739;DHT22;7461;52.440;13.540;2022-11-23T12:47:30;6.80;99.90
14739;DHT22;7461;52.440;13.540;2022-11-23T12:50:04;6.90;99.90
14739;DHT22;7461;52.440;13.540;2022-11-23T12:52:54;6.90;99.90
14739;DHT22;7461;52.440;13.540;2022-11-23T12:55:26;7.00;99.90
14739;DHT22;7461;52.440;13.540;2022-11-23T12:57:59;7.00;99.90
14739;DHT22;7461;52.440;13.540;2022-11-23T13:00:32;7.10;99.90
14739;DHT22;7461;52.440;13.540;2022-11-23T13:03:40;7.20;99.90
14739;DHT22;7461;52.440;13.540;2022-11-23T13:09:34;7.20;99.90
14739;DHT22;7461;52.440;13.540;2022-11-23T13:15:18;7.10;99.90
14739;DHT22;7461;52.440;13.540;2022-11-23T13:17:53;7.00;99.90
14739;DHT22;7461;52.440;13.540;2022-11-23T13:23:23;6.90;99.90
14739;DHT22;7461;52.440;13.540;2022-11-23T13:26:11;6.90;99.90
14739;DHT22;7461;52.440;13.540;2022-11-23T13:28:39;6.80;99.90
14739;DHT22;7461;52.440;13.540;2022-11-23T13:31:25;6.80;99.90
14739;DHT22;7461;52.440;13.540;2022-11-23T13:33:54;6.90;99.90
14739;DHT22;7461;52.440;13.540;2022-11-23T13:36:38;6.90;99.90
14739;DHT22;7461;52.440;13.540;2022-11-23T13:42:25;6.80;99.90
14739;DHT22;7461;52.440;13.540;2022-11-23T13:45:23;6.80;99.90
14739;DHT22;7461;52.440;13.540;2022-11-23T13:48:11;6.80;99.90
14739;DHT22;7461;52.440;13.540;2022-11-23T13:50:53;6.70;99.90
14739;DHT22;7461;52.440;13.540;2022-11-23T13:53:22;6.70;99.90
14739;DHT22;7461;52.440;13.540;2022-11-23T13:55:51;6.70;99.90
14739;DHT22;7461;52.440;13.540;2022-11-23T13:58:38;6.60;99.90
14739;DHT22;7461;52.440;13.540;2022-11-23T14:01:06;6.50;99.90
14739;DHT22;7461;52.440;13.540;2022-11-23T14:03:48;6.50;99.90
14739;DHT22;7461;52.440;13.540;2022-11-23T14:06:24;6.40;99.90
14739;DHT22;7461;52.440;13.540;2022-11-23T14:08:59;6.30;99.90
14739;DHT22;7461;52.440;13.540;2022-11-23T14:11:27;6.30;99.90
14739;DHT22;7461;52.440;13.540;2022-11-23T14:13:57;6.30;99.90
14739;DHT22;7461;52.440;13.540;2022-11-23T14:19:27;6.30;99.90
14739;DHT22;7461;52.440;13.540;2022-11-23T14:22:04;6.30;99.90
14739;DHT22;7461;52.440;13.540;2022-11-23T14:24:56;6.30;99.90
14739;DHT22;7461;52.440;13.540;2022-11-23T14:27:36;6.20;99.90
14739;DHT22;7461;52.440;13.540;2022-11-23T14:30:19;6.20;99.90
14739;DHT22;7461;52.440;13.540;2022-11-23T14:32:55;6.20;99.90
14739;DHT22;7461;52.440;13.540;2022-11-23T14:35:30;6.10;99.90
14739;DHT22;7461;52.440;13.540;2022-11-23T14:41:07;5.90;99.90
14739;DHT22;7461;52.440;13.540;2022-11-23T14:43:35;5.90;99.90
14739;DHT22;7461;52.440;13.540;2022-11-23T14:46:14;5.90;99.90
14739;DHT22;7461;52.440;13.540;2022-11-23T14:48:43;5.90;99.90
14739;DHT22;7461;52.440;13.540;2022-11-23T14:51:14;5.90;99.90
14739;DHT22;7461;52.440;13.540;2022-11-23T14:53:43;5.90;99.90
14739;DHT22;7461;52.440;13.540;2022-11-23T14:56:21;5.80;99.90
14739;DHT22;7461;52.440;13.540;2022-11-23T14:58:49;5.80;99.90
14739;DHT22;7461;52.440;13.540;2022-11-23T15:01:20;5.80;99.90
14739;DHT22;7461;52.440;13.540;2022-11-23T15:03:55;5.60;99.90
14739;DHT22;7461;52.440;13.540;2022-11-23T15:06:25;5.50;99.90
14739;DHT22;7461;52.440;13.540;2022-11-23T15:08:59;5.50;99.90
14739;DHT22;7461;52.440;13.540;2022-11-23T15:11:29;5.50;99.90
14739;DHT22;7461;52.440;13.540;2022-11-23T15:13:58;5.40;99.90
14739;DHT22;7461;52.440;13.540;2022-11-23T15:16:37;5.30;99.90
14739;DHT22;7461;52.440;13.540;2022-11-23T15:19:22;5.20;99.90
14739;DHT22;7461;52.440;13.540;2022-11-23T15:21:51;5.10;99.90
14739;DHT22;7461;52.440;13.540;2022-11-23T15:24:22;5.00;99.90
14739;DHT22;7461;52.440;13.540;2022-11-23T15:26:50;5.00;99.90
14739;DHT22;7461;52.440;13.540;2022-11-23T15:29:31;4.90;99.90
14739;DHT22;7461;52.440;13.540;2022-11-23T15:32:00;4.90;99.90
14739;DHT22;7461;52.440;13.540;2022-11-23T15:34:27;4.80;99.90
14739;DHT22;7461;52.440;13.540;2022-11-23T15:36:54;4.80;99.90
14739;DHT22;7461;52.440;13.540;2022-11-23T15:39:22;4.70;99.90
14739;DHT22;7461;52.440;13.540;2022-11-23T15:41:50;4.70;99.90
14739;DHT22;7461;52.440;13.540;2022-11-23T15:44:22;4.70;99.90
14739;DHT22;7461;52.440;13.540;2022-11-23T15:46:50;4.60;99.90
14739;DHT22;7461;52.440;13.540;2022-11-23T15:49:19;4.60;99.90
14739;DHT22;7461;52.440;13.540;2022-11-23T15:51:46;4.60;99.90
14739;DHT22;7461;52.440;13.540;2022-11-23T15:54:17;4.50;99.90
14739;DHT22;7461;52.440;13.540;2022-11-23T15:56:46;4.50;99.90
14739;DHT22;7461;52.440;13.540;2022-11-23T15:59:34;4.40;99.90
14739;DHT22;7461;52.440;13.540;2022-11-23T16:02:04;4.40;99.90
14739;DHT22;7461;52.440;13.540;2022-11-23T16:04:37;4.30;99.90
14739;DHT22;7461;52.440;13.540;2022-11-23T16:07:14;4.30;99.90
14739;DHT22;7461;52.440;13.540;2022-11-23T16:09:43;4.20;99.90
14739;DHT22;7461;52.440;13.540;2022-11-23T16:12:26;4.20;99.90
14739;DHT22;7461;52.440;13.540;2022-11-23T16:14:54;4.10;99.90
14739;DHT22;7461;52.440;13.540;2022-11-23T16:17:23;4.10;99.90
14739;DHT22;7461;52.440;13.540;2022-11-23T16:19:52;4.10;99.90
14739;DHT22;7461;52.440;13.540;2022-11-23T16:22:24;4.10;99.90
14739;DHT22;7461;52.440;13.540;2022-11-23T16:25:02;4.00;99.90
14739;DHT22;7461;52.440;13.540;2022-11-23T16:27:30;4.00;99.90
14739;DHT22;7461;52.440;13.540;2022-11-23T16:30:00;4.00;99.90
14739;DHT22;7461;52.440;13.540;2022-11-23T16:32:30;3.90;99.90
14739;DHT22;7461;52.440;13.540;2022-11-23T16:35:13;3.90;99.90